Walkersville, Maryland
Current Conditions -  °F | °C
As of 12:50 PM on Saturday 25 Oct 2014 (Local Time) from KFDK Reporting Station
Clear Clear  
Wind Chill: 72°   Ceiling: Unl
Heat Index: 72°   Visibility: 10mi
Dew Point: 39°   Wind: 14mph
Humidity: 31%   Direction: 250°WSW
Pressure: 29.91"   Gusts: NA
Location:  39.49°N, 77.35°W
Report Text: KFDK 251650Z 25012KT 10SM SKC 22/04 A2991
Loading
Personal Weather Stations






























Interactive Weather Map
Tropical Storm Tracking
New forecast layout! Learn more

10-Day Weather Forecast

Advertisements
Track Severe Weather on mobile